Time;durP1;ratioP1;P1;durP2;ratioP2;P2;SDS_P1;SDS_P2;PMS_P1;PMS_P2;Temp;Humidity;BMP_temperature;BMP_pressure;BME280_temperature;BME280_humidity;BME280_pressure;Samples;Min_cycle;Max_cycle;Signal;HPM_P1;HPM_P2
2022/11/01 00:02:06;;;;;;;11.78;4.35;;;;;;;5.99;65.85;149165.16;1769759;80;21070;-64
2022/11/01 00:04:33;;;;;;;8.95;3.60;;;;;;;5.94;66.04;149153.50;1769856;80;20955;-64
2022/11/01 00:07:02;;;;;;;11.93;3.47;;;;;;;5.92;65.92;149147.02;1769774;81;20931;-65
2022/11/01 00:09:29;;;;;;;14.35;3.90;;;;;;;5.91;65.95;149145.75;1765200;81;20991;-64
2022/11/01 00:11:57;;;;;;;10.13;3.70;;;;;;;5.90;66.06;149143.16;1724897;81;21282;-65
2022/11/01 00:14:27;;;;;;;12.03;3.55;;;;;;;5.90;65.86;149143.16;1769615;81;21417;-65
2022/11/01 00:16:54;;;;;;;10.58;3.75;;;;;;;5.90;65.86;149143.16;1769794;81;21519;-65
2022/11/01 00:19:20;;;;;;;13.13;3.80;;;;;;;5.92;65.84;149148.33;1769756;79;21113;-64
2022/11/01 00:21:49;;;;;;;10.78;3.80;;;;;;;5.92;65.76;149148.33;1749454;81;21063;-65
2022/11/01 00:24:18;;;;;;;11.70;3.85;;;;;;;5.93;65.63;149149.59;1710385;83;21222;-65
2022/11/01 00:26:47;;;;;;;8.08;3.42;;;;;;;5.91;65.55;149145.75;1734003;82;21052;-65
2022/11/01 00:29:14;;;;;;;12.60;4.10;;;;;;;5.86;65.47;149134.09;1709794;82;21045;-63
2022/11/01 00:31:42;;;;;;;8.83;3.72;;;;;;;5.85;65.39;149130.19;1734221;81;21520;-64
2022/11/01 00:34:10;;;;;;;12.85;3.15;;;;;;;5.80;65.18;149117.28;1734312;82;21056;-63
2022/11/01 00:36:37;;;;;;;8.25;3.45;;;;;;;5.80;65.18;149117.28;1734600;82;22056;-64
2022/11/01 00:39:06;;;;;;;10.50;3.90;;;;;;;5.81;65.04;149121.17;1726257;83;20991;-65
2022/11/01 00:41:33;;;;;;;8.53;3.55;;;;;;;5.76;64.77;149106.94;1726292;81;21095;-63
2022/11/01 00:44:00;;;;;;;12.43;3.98;;;;;;;5.76;64.77;149106.94;1726167;81;21084;-63
2022/11/01 00:46:27;;;;;;;10.63;3.77;;;;;;;5.73;64.92;149101.77;1747062;80;21485;-63
2022/11/01 00:48:54;;;;;;;10.65;3.95;;;;;;;5.69;64.99;149091.44;1781900;80;22856;-63
2022/11/01 00:51:21;;;;;;;12.75;3.98;;;;;;;5.70;64.85;149092.70;1781757;79;21060;-63
2022/11/01 00:53:48;;;;;;;11.85;4.47;;;;;;;5.65;65.07;149081.09;1781779;80;21020;-63
2022/11/01 00:56:14;;;;;;;9.88;4.22;;;;;;;5.54;65.22;149052.64;1781726;80;21083;-63
2022/11/01 00:58:42;;;;;;;8.28;4.03;;;;;;;5.54;65.22;149052.64;1781865;80;21522;-63
2022/11/01 01:01:08;;;;;;;15.50;4.33;;;;;;;5.39;65.67;149016.42;1781833;80;21237;-63
2022/11/01 01:03:37;;;;;;;11.90;4.60;;;;;;;5.39;65.67;149016.42;1781670;80;21454;-63
2022/11/01 01:06:04;;;;;;;11.18;4.83;;;;;;;5.26;66.17;148984.13;1781743;80;20985;-63
2022/11/01 01:08:31;;;;;;;9.85;4.67;;;;;;;5.14;66.51;148954.39;1781758;80;21438;-63
2022/11/01 01:10:57;;;;;;;9.70;4.53;;;;;;;5.06;66.93;148933.73;1782005;80;20943;-63
2022/11/01 01:13:26;;;;;;;14.25;5.33;;;;;;;5.00;67.16;148918.23;1756170;80;20986;-62
2022/11/01 01:15:53;;;;;;;11.97;4.95;;;;;;;4.95;67.45;148905.28;1749224;82;20926;-63
2022/11/01 01:18:19;;;;;;;8.75;3.98;;;;;;;4.90;67.47;148893.69;1749100;82;21082;-63
2022/11/01 01:20:46;;;;;;;10.72;4.60;;;;;;;4.87;67.63;148887.20;1750359;80;21499;-63
2022/11/01 01:23:14;;;;;;;12.63;4.03;;;;;;;4.90;67.57;148893.69;1781681;80;21040;-59
2022/11/01 01:25:41;;;;;;;11.50;4.53;;;;;;;4.87;67.56;148887.20;1781680;80;21557;-59
2022/11/01 01:28:09;;;;;;;15.05;4.78;;;;;;;4.84;67.67;148879.47;1781445;80;21033;-60
2022/11/01 01:30:40;;;;;;;8.40;3.80;;;;;;;4.80;67.80;148869.12;1781913;80;21009;-64
2022/11/01 01:33:08;;;;;;;10.68;3.80;;;;;;;4.77;67.79;148861.39;1781984;80;21485;-64
2022/11/01 01:35:37;;;;;;;10.43;4.28;;;;;;;4.79;67.82;148866.56;1781749;80;21079;-64
2022/11/01 01:38:05;;;;;;;13.08;4.87;;;;;;;4.79;67.92;148866.56;1781893;80;21903;-63
2022/11/01 01:40:33;;;;;;;9.43;3.72;;;;;;;4.78;67.79;148862.66;1781526;80;21024;-63
2022/11/01 01:42:59;;;;;;;9.68;3.52;;;;;;;4.80;67.67;148869.12;1781976;80;21033;-63
2022/11/01 01:45:31;;;;;;;9.58;3.42;;;;;;;4.84;67.49;148879.47;1781463;80;21664;-63
2022/11/01 01:48:20;;;;;;;9.93;3.77;;;;;;;4.90;67.26;148892.38;1750011;80;21509;-63
2022/11/01 01:50:56;;;;;;;7.75;3.62;;;;;;;4.92;67.12;148897.53;1745888;82;21250;-64
2022/11/01 01:53:42;;;;;;;10.23;3.47;;;;;;;4.96;66.95;148907.86;1758872;80;21039;-64
2022/11/01 01:56:24;;;;;;;;;;;;;;;4.97;66.77;148910.44;1761783;81;21043;-64
2022/11/01 01:58:55;;;;;;;7.78;3.40;;;;;;;4.97;66.68;148910.44;1756525;81;20138;-64
2022/11/01 02:01:22;;;;;;;8.43;3.70;;;;;;;4.97;66.56;148910.44;1802350;78;21024;-64
2022/11/01 02:03:50;;;;;;;11.73;3.65;;;;;;;4.99;66.48;148915.66;1802374;79;21873;-64
2022/11/01 02:06:21;;;;;;;9.23;3.70;;;;;;;5.01;66.42;148920.81;1802352;79;21062;-63
2022/11/01 02:08:57;;;;;;;10.05;3.58;;;;;;;5.01;66.38;148920.81;1802824;79;21079;-63
2022/11/01 02:11:25;;;;;;;8.00;3.42;;;;;;;5.02;66.36;148923.41;1767009;79;21035;-63
2022/11/01 02:13:53;;;;;;;11.68;3.80;;;;;;;5.03;66.34;148925.98;1763529;81;21035;-63
2022/11/01 02:17:01;;;;;;;12.23;3.85;;;;;;;5.01;66.36;148922.09;1736590;82;21570;-63
2022/11/01 02:19:46;;;;;;;8.50;3.42;;;;;;;5.02;66.33;148923.41;1736673;82;20940;-63
2022/11/01 02:23:02;;;;;;;9.85;3.50;;;;;;;5.02;66.32;148923.41;1786067;79;21672;-63
2022/11/01 02:26:12;;;;;;;7.85;3.33;;;;;;;5.00;66.37;148919.50;1799107;79;21082;-64
2022/11/01 02:28:54;;;;;;;11.20;3.58;;;;;;;4.98;66.42;148914.34;1799307;79;21052;-64
2022/11/01 02:31:59;;;;;;;9.85;3.72;;;;;;;4.95;66.47;148905.28;1798967;78;21444;-64
2022/11/01 02:34:30;;;;;;;11.40;3.33;;;;;;;4.95;66.44;148905.28;1798908;79;20924;-64
2022/11/01 02:37:09;;;;;;;8.35;3.52;;;;;;;4.95;66.32;148905.28;1799033;79;21055;-63
2022/11/01 02:39:40;;;;;;;8.58;3.37;;;;;;;4.96;66.33;148907.86;1781541;78;21405;-63
2022/11/01 02:42:16;;;;;;;7.17;3.33;;;;;;;4.93;66.36;148901.44;1799055;78;20977;-64
2022/11/01 02:44:52;;;;;;;9.40;3.85;;;;;;;4.89;66.41;148891.09;1799184;79;21043;-64
2022/11/01 02:47:19;;;;;;;7.25;3.33;;;;;;;4.85;66.51;148880.72;1807310;78;21042;-64
2022/11/01 02:49:52;;;;;;;6.20;3.08;;;;;;;4.81;66.62;148871.72;1818816;78;22147;-63
2022/11/01 02:52:23;;;;;;;11.30;3.45;;;;;;;4.79;66.70;148866.56;1818711;78;21838;-63
2022/11/01 02:54:59;;;;;;;13.18;4.20;;;;;;;4.80;66.72;148867.81;1819269;78;21436;-63
2022/11/01 02:57:39;;;;;;;10.98;3.95;;;;;;;4.80;66.66;148869.12;1818601;78;21927;-64
2022/11/01 03:00:28;;;;;;;8.35;3.33;;;;;;;4.82;66.54;148874.30;1818344;78;21066;-63
2022/11/01 03:03:18;;;;;;;10.88;3.75;;;;;;;4.85;66.34;148882.05;1818650;78;21097;-63
2022/11/01 03:06:08;;;;;;;9.33;3.75;;;;;;;4.89;66.24;148891.09;1807750;78;21022;-64
2022/11/01 03:08:42;;;;;;;10.53;3.55;;;;;;;4.89;66.14;148891.09;1818696;78;21098;-65
2022/11/01 03:11:24;;;;;;;10.63;3.45;;;;;;;4.88;66.10;148889.78;1793139;78;21792;-65
2022/11/01 03:14:35;;;;;;;12.07;3.92;;;;;;;4.88;66.08;148888.53;1753836;81;21012;-63
2022/11/01 03:17:33;;;;;;;10.98;3.25;;;;;;;4.86;66.14;148884.63;1755367;81;20975;-63
2022/11/01 03:20:10;;;;;;;10.70;3.65;;;;;;;4.84;66.21;148879.47;1786446;80;21043;-63
2022/11/01 03:22:43;;;;;;;9.43;3.55;;;;;;;4.82;66.28;148874.30;1750968;81;21013;-63
2022/11/01 03:25:38;;;;;;;7.80;3.55;;;;;;;4.79;66.28;148866.56;1786857;79;21833;-64
2022/11/01 03:28:20;;;;;;;7.00;3.20;;;;;;;4.77;66.30;148861.39;1786543;78;21065;-63
2022/11/01 03:30:57;;;;;;;7.53;3.47;;;;;;;4.79;66.23;148866.56;1786962;79;21054;-64
2022/11/01 03:33:25;;;;;;;8.48;3.15;;;;;;;4.79;66.14;148865.23;1786549;80;20983;-64
2022/11/01 03:35:54;;;;;;;8.65;3.92;;;;;;;4.79;66.09;148866.56;1786516;79;21337;-64
2022/11/01 03:38:25;;;;;;;7.12;3.45;;;;;;;4.79;66.08;148866.56;1755753;80;21204;-64
2022/11/01 03:40:55;;;;;;;8.85;3.47;;;;;;;4.76;66.09;148858.81;1786950;80;21026;-64
2022/11/01 03:43:24;;;;;;;9.20;3.22;;;;;;;4.72;66.13;148849.75;1786615;80;21592;-64
2022/11/01 03:45:51;;;;;;;10.08;3.80;;;;;;;4.68;66.24;148838.11;1786610;78;21021;-64
2022/11/01 03:48:18;;;;;;;9.13;3.25;;;;;;;4.64;66.34;148829.09;1774645;79;21055;-65
2022/11/01 03:50:47;;;;;;;10.05;3.42;;;;;;;4.63;66.44;148825.19;1769807;81;22166;-64
2022/11/01 03:53:14;;;;;;;7.62;3.35;;;;;;;4.61;66.48;148820.03;1769955;81;21471;-63
2022/11/01 03:55:42;;;;;;;6.58;3.12;;;;;;;4.59;66.50;148817.45;1769747;81;21038;-64
2022/11/01 03:58:09;;;;;;;9.53;3.25;;;;;;;4.58;66.55;148814.88;1769630;81;21035;-64
2022/11/01 04:00:41;;;;;;;10.30;3.65;;;;;;;4.54;66.54;148804.55;1769825;81;21043;-64
2022/11/01 04:03:09;;;;;;;11.45;3.67;;;;;;;4.52;66.67;148799.34;1769587;81;21638;-63
2022/11/01 04:05:38;;;;;;;13.15;3.87;;;;;;;4.46;66.83;148783.84;1769685;80;21070;-65
2022/11/01 04:08:05;;;;;;;9.05;3.75;;;;;;;4.43;66.97;148776.11;1769671;80;20935;-64
2022/11/01 04:10:34;;;;;;;7.70;3.12;;;;;;;4.43;67.02;148777.42;1777018;79;21560;-65
2022/11/01 04:13:01;;;;;;;15.78;4.00;;;;;;;4.42;67.01;148773.53;1759501;80;21043;-66
2022/11/01 04:21:16;;;;;;;10.10;4.20;;;;;;;4.38;67.06;148764.47;1732313;81;24554;-64
2022/11/01 04:23:43;;;;;;;10.58;3.77;;;;;;;4.36;67.03;148758.05;1755590;80;21580;-63
2022/11/01 04:26:15;;;;;;;10.38;3.70;;;;;;;4.36;67.00;148758.05;1756630;81;21028;-64
2022/11/01 04:28:43;;;;;;;9.10;3.95;;;;;;;4.37;66.97;148760.62;1765274;81;21215;-66
2022/11/01 04:31:13;;;;;;;10.78;3.83;;;;;;;4.37;66.96;148760.62;1778293;80;21032;-64
2022/11/01 04:33:40;;;;;;;11.90;4.17;;;;;;;4.36;66.96;148759.31;1778350;80;21313;-64
2022/11/01 04:36:08;;;;;;;9.53;4.40;;;;;;;4.35;66.96;148755.47;1778292;80;21571;-64
2022/11/01 04:38:35;;;;;;;9.90;4.05;;;;;;;4.33;66.99;148751.56;1778272;80;21020;-59
2022/11/01 04:41:02;;;;;;;9.75;3.92;;;;;;;4.30;66.99;148745.09;1778082;80;21053;-61
2022/11/01 04:43:29;;;;;;;9.88;4.00;;;;;;;4.30;67.03;148745.09;1778056;80;21353;-60
2022/11/01 04:45:56;;;;;;;12.23;4.08;;;;;;;4.33;67.10;148750.30;1778074;80;21036;-58
2022/11/01 04:48:24;;;;;;;16.85;4.47;;;;;;;4.44;67.08;148778.69;1771734;80;21490;-59
2022/11/01 04:50:51;;;;;;;17.25;4.92;;;;;;;4.69;66.66;148840.69;1767525;81;21091;-59
2022/11/01 04:53:18;;;;;;;15.68;3.75;;;;;;;5.07;66.01;148935.00;1767489;81;21298;-59
2022/11/01 04:55:46;;;;;;;11.75;4.10;;;;;;;5.28;64.81;148989.28;1767387;81;21091;-58
2022/11/01 04:58:13;;;;;;;17.10;4.62;;;;;;;5.29;64.39;148991.86;1767347;81;21856;-59
2022/11/01 05:00:42;;;;;;;16.05;4.78;;;;;;;5.27;64.38;148985.44;1767349;80;20937;-59
2022/11/01 05:03:09;;;;;;;11.73;4.53;;;;;;;5.25;64.44;148980.27;1767527;81;21044;-59
2022/11/01 05:05:38;;;;;;;12.40;4.70;;;;;;;5.23;64.49;148975.09;1743869;81;21783;-60
2022/11/01 05:08:07;;;;;;;14.98;4.40;;;;;;;5.23;64.47;148975.09;1767212;81;20997;-59
2022/11/01 05:10:36;;;;;;;14.78;4.45;;;;;;;5.23;64.47;148975.09;1767864;81;21032;-58
2022/11/01 05:13:04;;;;;;;13.88;4.60;;;;;;;5.31;64.40;148995.77;1739380;81;21485;-59
2022/11/01 05:15:34;;;;;;;14.85;4.72;;;;;;;5.40;64.06;149019.00;1736390;82;20975;-60
2022/11/01 05:18:03;;;;;;;16.95;5.03;;;;;;;5.49;63.88;149039.72;1736048;82;21297;-60
2022/11/01 05:20:31;;;;;;;12.93;4.62;;;;;;;5.58;63.65;149062.97;1736180;82;21004;-60
2022/11/01 05:23:01;;;;;;;13.72;4.78;;;;;;;5.77;63.18;149109.52;1767329;81;21096;-60
2022/11/01 05:25:30;;;;;;;16.82;4.80;;;;;;;5.77;63.18;149109.52;1766774;81;20897;-60
2022/11/01 05:28:04;;;;;;;12.15;4.72;;;;;;;5.82;62.84;149122.44;1761289;81;21019;-59
2022/11/01 05:30:31;;;;;;;20.48;4.55;;;;;;;5.87;62.66;149136.67;1767561;80;21450;-60
2022/11/01 05:33:00;;;;;;;10.13;3.83;;;;;;;5.92;62.49;149148.33;1767371;81;21000;-60
2022/11/01 05:35:28;;;;;;;13.60;4.37;;;;;;;6.02;62.15;149174.22;1767353;81;20908;-61
2022/11/01 05:37:55;;;;;;;15.63;4.87;;;;;;;6.10;62.07;149192.36;1767282;81;21055;-59
2022/11/01 05:40:23;;;;;;;16.27;5.25;;;;;;;6.18;61.93;149211.72;1767440;79;21409;-60
2022/11/01 05:42:50;;;;;;;12.95;4.47;;;;;;;6.23;61.57;149225.95;1767438;81;21228;-60
2022/11/01 05:45:18;;;;;;;14.58;4.50;;;;;;;6.28;61.43;149238.88;1767331;81;21031;-60
2022/11/01 05:47:44;;;;;;;11.88;4.35;;;;;;;6.33;61.33;149250.53;1767129;80;21063;-61
2022/11/01 05:50:13;;;;;;;15.18;4.90;;;;;;;6.40;61.15;149267.36;1767158;81;21075;-59
2022/11/01 05:52:41;;;;;;;11.20;4.10;;;;;;;6.44;60.95;149277.69;1767528;81;20967;-59
2022/11/01 05:55:09;;;;;;;13.43;4.12;;;;;;;6.53;60.74;149301.02;1767349;81;21488;-60
2022/11/01 05:57:37;;;;;;;13.15;4.60;;;;;;;6.63;60.52;149324.28;1743727;81;21079;-60
2022/11/01 06:00:09;;;;;;;11.73;4.83;;;;;;;6.69;60.36;149341.11;1767355;79;21044;-60
2022/11/01 06:02:47;;;;;;;13.10;5.33;;;;;;;6.74;60.32;149352.72;1767548;81;21479;-60
2022/11/01 06:05:15;;;;;;;13.72;5.08;;;;;;;6.82;60.26;149373.45;1766828;81;20999;-60
2022/11/01 06:07:42;;;;;;;16.60;5.30;;;;;;;6.84;60.14;149378.63;1767266;81;21843;-60
2022/11/01 06:10:09;;;;;;;12.63;4.47;;;;;;;6.90;60.13;149391.56;1767229;79;21004;-59
2022/11/01 06:12:36;;;;;;;17.90;5.70;;;;;;;6.92;60.06;149398.05;1748091;81;21270;-60
2022/11/01 06:15:05;;;;;;;13.22;5.00;;;;;;;6.96;59.95;149408.39;1746689;82;21050;-60
2022/11/01 06:17:33;;;;;;;12.43;5.15;;;;;;;7.05;59.92;149430.41;1773910;80;21260;-59
2022/11/01 06:20:00;;;;;;;10.28;5.65;;;;;;;7.11;59.83;149445.91;1773885;80;21207;-60
2022/11/01 06:22:28;;;;;;;16.30;5.72;;;;;;;7.15;59.90;149456.25;1768872;80;21489;-59
2022/11/01 06:24:55;;;;;;;14.63;6.10;;;;;;;7.21;59.90;149469.25;1767473;81;21009;-60
2022/11/01 06:27:24;;;;;;;18.50;5.85;;;;;;;7.30;59.82;149493.84;1767231;81;21032;-60
2022/11/01 06:29:52;;;;;;;13.45;6.25;;;;;;;7.38;59.50;149513.22;1766323;81;21028;-60
2022/11/01 06:32:19;;;;;;;17.17;5.78;;;;;;;7.43;59.43;149526.20;1767074;81;21238;-59
2022/11/01 06:34:46;;;;;;;14.25;5.92;;;;;;;7.49;59.36;149539.14;1767509;81;21020;-61
2022/11/01 06:37:13;;;;;;;15.08;5.83;;;;;;;7.54;59.31;149552.06;1767440;81;21094;-59
2022/11/01 06:39:41;;;;;;;14.07;5.37;;;;;;;7.59;59.14;149565.00;1767267;81;21044;-59
2022/11/01 06:42:08;;;;;;;10.60;4.62;;;;;;;7.65;59.08;149580.58;1741731;81;21067;-59
2022/11/01 06:44:39;;;;;;;11.40;5.00;;;;;;;7.74;58.43;149602.59;1714972;80;21127;-59
2022/11/01 06:47:05;;;;;;;12.93;4.80;;;;;;;7.83;58.05;149624.56;1773841;79;21008;-59
2022/11/01 06:49:34;;;;;;;11.15;4.90;;;;;;;7.89;57.74;149640.14;1772239;79;21080;-59
2022/11/01 06:52:00;;;;;;;9.48;3.70;;;;;;;7.97;57.36;149660.84;1741722;81;21054;-59
2022/11/01 06:54:27;;;;;;;12.75;4.55;;;;;;;8.04;57.17;149677.69;1747232;81;21054;-59
2022/11/01 06:56:54;;;;;;;21.30;4.83;;;;;;;8.13;57.07;149699.72;1749781;79;21804;-60
2022/11/01 06:59:21;;;;;;;13.25;4.83;;;;;;;8.19;56.81;149715.25;1750213;79;21042;-64
2022/11/01 07:01:48;;;;;;;13.25;4.62;;;;;;;8.26;56.46;149732.09;1750125;79;21054;-64
2022/11/01 07:04:15;;;;;;;18.98;5.28;;;;;;;8.28;56.37;149738.55;1752937;79;21057;-64
2022/11/01 07:06:42;;;;;;;11.18;4.37;;;;;;;8.32;56.20;149747.62;1748150;81;21010;-64
2022/11/01 07:09:10;;;;;;;15.95;4.60;;;;;;;8.36;55.91;149756.72;1752412;79;21086;-64
2022/11/01 07:11:37;;;;;;;23.00;5.25;;;;;;;8.40;56.10;149767.08;1751463;81;21022;-64
2022/11/01 07:16:33;;;;;;;19.00;5.70;;;;;;;8.58;55.80;149813.78;1826392;76;28717;-64
2022/11/01 07:19:01;;;;;;;16.67;5.08;;;;;;;8.60;55.54;149818.95;1766784;79;20996;-65
2022/11/01 07:21:28;;;;;;;19.20;6.10;;;;;;;8.67;55.57;149834.48;1808198;77;21279;-66
2022/11/01 07:23:56;;;;;;;17.67;4.67;;;;;;;8.73;55.56;149850.03;1805320;77;21087;-67
2022/11/01 07:26:23;;;;;;;22.87;7.03;;;;;;;8.81;55.69;149869.47;1796571;77;20924;-67
2022/11/01 07:28:50;;;;;;;10.95;5.05;;;;;;;8.89;55.66;149891.50;1794381;78;21148;-66
2022/11/01 07:31:16;;;;;;;13.58;4.67;;;;;;;9.00;55.39;149917.47;1760101;80;21039;-65
2022/11/01 07:33:49;;;;;;;10.08;5.45;;;;;;;9.08;55.27;149936.91;1772620;80;21516;-66
2022/11/01 07:36:17;;;;;;;13.15;5.15;;;;;;;9.18;55.10;149962.81;1778907;78;21474;-66
2022/11/01 07:38:43;;;;;;;20.10;6.22;;;;;;;9.29;55.24;149991.36;1767246;79;20971;-65
2022/11/01 07:41:10;;;;;;;10.50;5.58;;;;;;;9.41;54.94;150021.17;1766757;79;21717;-65
2022/11/01 07:43:38;;;;;;;18.25;5.60;;;;;;;9.54;54.69;150052.27;1776852;79;21011;-65
2022/11/01 07:46:06;;;;;;;13.43;5.70;;;;;;;9.63;54.68;150075.64;1776817;79;21226;-65
2022/11/01 07:48:32;;;;;;;9.33;5.10;;;;;;;9.74;54.09;150102.88;1780452;80;21507;-65
2022/11/01 07:51:01;;;;;;;14.83;5.55;;;;;;;9.82;53.96;150122.28;1775991;79;21112;-65
2022/11/01 07:53:28;;;;;;;12.37;5.42;;;;;;;9.94;53.54;150152.11;1787694;77;20983;-66
2022/11/01 07:56:01;;;;;;;11.75;5.58;;;;;;;10.08;53.36;150187.17;1759845;79;21523;-67
2022/11/01 07:58:29;;;;;;;10.43;5.17;;;;;;;10.20;53.04;150217.02;1775689;78;21392;-65
2022/11/01 08:00:56;;;;;;;10.08;4.22;;;;;;;10.29;52.65;150241.66;1783369;78;21110;-66
2022/11/01 08:03:23;;;;;;;9.50;3.72;;;;;;;10.37;52.06;150259.81;1772202;79;21034;-66
2022/11/01 08:05:51;;;;;;;7.40;4.12;;;;;;;10.45;51.23;150280.59;1773934;79;20941;-66
2022/11/01 08:08:18;;;;;;;8.10;3.60;;;;;;;10.52;51.04;150298.80;1769296;79;20964;-65
2022/11/01 08:10:46;;;;;;;9.18;3.33;;;;;;;10.57;50.90;150311.77;1770684;79;21066;-66
2022/11/01 08:13:20;;;;;;;8.33;3.33;;;;;;;10.63;50.26;150324.73;1772056;79;21271;-65
2022/11/01 08:15:48;;;;;;;9.40;3.12;;;;;;;10.69;49.96;150340.30;1767669;79;21682;-65
2022/11/01 08:18:16;;;;;;;9.25;3.47;;;;;;;10.78;49.89;150363.69;1759618;79;21123;-65
2022/11/01 08:20:45;;;;;;;6.28;3.52;;;;;;;10.83;50.07;150376.66;1767048;80;21083;-66
2022/11/01 08:23:13;;;;;;;5.90;3.00;;;;;;;10.93;50.18;150400.00;1761865;80;21203;-66
2022/11/01 08:25:40;;;;;;;6.78;2.80;;;;;;;11.03;49.56;150425.98;1767960;80;21144;-66
2022/11/01 08:28:17;;;;;;;10.10;3.05;;;;;;;11.07;48.62;150436.36;1764757;78;21560;-66
2022/11/01 08:30:51;;;;;;;6.92;3.10;;;;;;;11.13;48.81;150451.92;1763264;78;21024;-66
2022/11/01 08:33:19;;;;;;;5.97;3.17;;;;;;;11.26;48.36;150483.09;1766257;79;21554;-65
2022/11/01 08:35:48;;;;;;;5.15;2.98;;;;;;;11.36;47.65;150507.78;1764466;80;21839;-65
2022/11/01 08:38:15;;;;;;;7.03;2.70;;;;;;;11.43;47.57;150525.94;1765649;79;21065;-65
2022/11/01 08:40:42;;;;;;;10.20;3.00;;;;;;;11.48;47.44;150537.63;1764557;79;21030;-66
2022/11/01 08:43:09;;;;;;;6.12;2.90;;;;;;;11.51;47.36;150545.42;1765227;79;21060;-64
2022/11/01 08:45:36;;;;;;;4.15;2.35;;;;;;;11.60;47.54;150568.78;1763189;78;21570;-66
2022/11/01 08:48:04;;;;;;;4.05;2.33;;;;;;;11.73;47.50;150602.56;1761500;78;21138;-65
2022/11/01 08:50:50;;;;;;;9.55;2.50;;;;;;;11.86;47.24;150633.75;1758856;79;20933;-65
2022/11/01 08:53:10;;;;;;;6.15;2.80;;;;;;;11.99;46.72;150667.50;1760365;79;21540;-65
2022/11/01 08:55:39;;;;;;;6.75;1.92;;;;;;;12.08;46.11;150688.36;1762132;79;21048;-64
2022/11/01 08:58:07;;;;;;;6.05;2.47;;;;;;;12.15;45.81;150706.53;1770840;78;21047;-64
2022/11/01 09:00:34;;;;;;;4.30;1.90;;;;;;;12.21;45.43;150722.09;1758805;79;21118;-65
2022/11/01 09:03:02;;;;;;;4.55;1.90;;;;;;;12.27;45.47;150737.73;1762489;79;21108;-65
2022/11/01 09:05:30;;;;;;;8.65;2.10;;;;;;;12.34;45.05;150753.31;1762409;80;21033;-64
2022/11/01 09:07:58;;;;;;;6.35;2.45;;;;;;;12.40;44.86;150770.20;1762633;80;20997;-65
2022/11/01 09:10:25;;;;;;;8.73;2.60;;;;;;;12.45;44.88;150781.88;1764698;79;21571;-64
2022/11/01 09:12:52;;;;;;;8.98;2.60;;;;;;;12.45;44.86;150783.19;1754760;80;21915;-64
2022/11/01 09:15:19;;;;;;;7.40;2.70;;;;;;;12.47;45.11;150787.06;1756549;80;21098;-64
2022/11/01 09:17:46;;;;;;;4.97;2.80;;;;;;;12.48;45.25;150789.66;1755059;81;21089;-66
2022/11/01 09:20:14;;;;;;;6.45;2.05;;;;;;;12.52;45.56;150800.09;1754215;80;21478;-65
2022/11/01 09:22:55;;;;;;;4.90;2.85;;;;;;;12.59;45.70;150818.28;1755238;81;21093;-65
2022/11/01 09:25:23;;;;;;;5.75;2.77;;;;;;;12.69;45.84;150841.64;1754973;79;21100;-64
2022/11/01 09:27:56;;;;;;;5.78;2.45;;;;;;;12.78;45.88;150863.75;1755577;81;21412;-65
2022/11/01 09:30:24;;;;;;;3.45;1.80;;;;;;;12.86;45.81;150885.84;1758898;81;20974;-66
2022/11/01 09:32:51;;;;;;;5.90;2.35;;;;;;;12.93;45.64;150901.44;1762527;81;21128;-66
2022/11/01 09:35:18;;;;;;;7.28;2.17;;;;;;;12.99;45.12;150917.06;1755912;79;21050;-64
2022/11/01 09:37:45;;;;;;;5.05;2.12;;;;;;;13.02;44.66;150924.86;1761941;80;21156;-64
2022/11/01 09:40:13;;;;;;;4.03;2.00;;;;;;;13.02;44.17;150924.86;1746409;80;21082;-64
2022/11/01 09:42:42;;;;;;;7.95;2.05;;;;;;;13.02;43.75;150924.86;1730071;81;21046;-64
2022/11/01 09:45:19;;;;;;;5.45;1.75;;;;;;;13.01;43.60;150923.53;1758851;81;21103;-64
2022/11/01 09:47:51;;;;;;;4.35;2.00;;;;;;;13.06;43.43;150935.25;1763982;79;21034;-64
2022/11/01 09:50:33;;;;;;;3.92;1.60;;;;;;;13.04;43.35;150931.38;1763386;79;21103;-64
2022/11/01 09:52:59;;;;;;;3.75;1.95;;;;;;;13.09;43.44;150943.05;1758047;81;21034;-66
2022/11/01 09:56:21;;;;;;;3.80;1.70;;;;;;;13.14;43.44;150954.75;1730201;81;21085;-64
2022/11/01 09:59:30;;;;;;;5.72;1.75;;;;;;;13.22;43.37;150975.55;1757081;81;21497;-64
2022/11/01 10:02:34;;;;;;;6.47;2.40;;;;;;;13.28;43.00;150989.86;1757189;80;21049;-64
2022/11/01 10:05:33;;;;;;;7.58;3.98;;;;;;;13.29;42.48;150992.45;1749278;81;21245;-64
2022/11/01 10:08:26;;;;;;;4.58;2.15;;;;;;;13.24;42.59;150979.45;1747284;81;21037;-63
2022/11/01 10:11:28;;;;;;;3.65;2.08;;;;;;;13.23;42.58;150976.86;1749415;81;21095;-64
2022/11/01 10:14:36;;;;;;;4.10;1.90;;;;;;;13.27;42.52;150987.25;1757079;81;21077;-64
2022/11/01 10:17:14;;;;;;;5.22;1.70;;;;;;;13.29;42.90;150992.45;1768178;78;21090;-64
2022/11/01 10:19:48;;;;;;;5.08;1.92;;;;;;;13.35;41.69;151006.77;1776951;78;21877;-65
2022/11/01 10:22:26;;;;;;;10.43;2.10;;;;;;;13.37;41.62;151013.23;1772223;78;20995;-66
2022/11/01 10:25:18;;;;;;;5.10;2.27;;;;;;;13.38;41.37;151014.56;1780625;78;21379;-66
2022/11/01 10:28:16;;;;;;;4.33;1.75;;;;;;;13.36;41.57;151009.38;1777142;78;21017;-65
2022/11/01 10:30:47;;;;;;;11.57;2.40;;;;;;;13.35;41.89;151006.77;1780340;78;21059;-64
2022/11/01 10:33:34;;;;;;;6.55;2.20;;;;;;;13.34;42.11;151005.44;1782027;78;21199;-64
2022/11/01 10:36:15;;;;;;;4.97;1.90;;;;;;;13.37;42.34;151013.23;1783696;78;21119;-64
2022/11/01 10:39:08;;;;;;;5.78;1.92;;;;;;;13.44;42.36;151031.52;1784762;78;21028;-64
2022/11/01 10:41:51;;;;;;;4.45;1.85;;;;;;;13.50;42.11;151044.52;1780849;79;21034;-63
2022/11/01 10:44:29;;;;;;;4.03;1.70;;;;;;;13.53;42.09;151053.64;1763198;79;21048;-64
2022/11/01 10:46:56;;;;;;;6.03;2.02;;;;;;;13.57;42.01;151062.70;1768448;79;21148;-65
2022/11/01 10:49:32;;;;;;;5.33;2.00;;;;;;;13.56;41.59;151060.11;1772342;78;21052;-64
2022/11/01 10:52:10;;;;;;;10.10;2.05;;;;;;;13.54;41.26;151054.91;1772239;79;20997;-63
2022/11/01 10:54:39;;;;;;;3.70;1.80;;;;;;;13.51;41.23;151047.11;1778975;79;21042;-65
2022/11/01 10:57:28;;;;;;;4.65;2.00;;;;;;;13.53;41.19;151053.64;1778592;79;21574;-65
2022/11/01 10:59:56;;;;;;;4.78;2.20;;;;;;;13.57;41.47;151062.70;1775968;79;21406;-63
2022/11/01 11:02:29;;;;;;;4.25;1.82;;;;;;;13.59;41.62;151067.91;1782044;79;21039;-64
2022/11/01 11:04:56;;;;;;;8.40;2.40;;;;;;;13.59;41.67;151067.91;1779764;79;21049;-63
2022/11/01 11:07:24;;;;;;;4.97;2.00;;;;;;;13.60;41.69;151071.83;1749685;79;21012;-63
2022/11/01 11:09:51;;;;;;;4.72;2.00;;;;;;;13.61;41.79;151074.42;1765419;79;21090;-63
2022/11/01 11:12:20;;;;;;;4.17;2.00;;;;;;;13.66;41.77;151086.14;1784796;79;21238;-63
2022/11/01 11:15:02;;;;;;;3.72;2.05;;;;;;;13.67;41.73;151088.75;1778277;79;21048;-63
2022/11/01 11:17:44;;;;;;;4.58;2.02;;;;;;;13.66;41.73;151086.14;1764846;79;21504;-65
2022/11/01 11:20:12;;;;;;;4.53;1.90;;;;;;;13.64;41.88;151080.94;1739012;80;20997;-63
2022/11/01 11:22:41;;;;;;;4.15;2.27;;;;;;;13.65;42.05;151083.55;1773022;80;21349;-63
2022/11/01 11:25:17;;;;;;;5.95;2.25;;;;;;;13.67;42.21;151088.75;1756658;80;21328;-65
2022/11/01 11:27:47;;;;;;;4.20;2.05;;;;;;;13.70;42.42;151096.53;1772631;80;21040;-63
2022/11/01 11:30:31;;;;;;;4.90;2.33;;;;;;;13.74;42.09;151106.94;1772102;80;21083;-66
2022/11/01 11:33:01;;;;;;;7.55;2.50;;;;;;;13.75;42.18;151109.53;1765741;80;21078;-63
2022/11/01 11:35:31;;;;;;;4.58;2.65;;;;;;;13.81;42.25;151122.53;1770975;80;21232;-63
2022/11/01 11:38:05;;;;;;;5.45;2.50;;;;;;;13.85;42.04;151134.25;1777617;80;21214;-65
2022/11/01 11:40:42;;;;;;;5.97;2.73;;;;;;;13.88;41.94;151140.77;1777217;80;21111;-64
2022/11/01 11:43:32;;;;;;;7.30;2.50;;;;;;;13.87;41.96;151138.17;1756964;80;21497;-65
2022/11/01 11:46:25;;;;;;;6.50;2.50;;;;;;;13.86;42.23;151135.58;1770439;80;21096;-64
2022/11/01 11:49:03;;;;;;;5.70;2.50;;;;;;;13.88;42.09;151140.77;1765925;80;21018;-64
2022/11/01 11:51:36;;;;;;;4.45;2.62;;;;;;;13.87;42.11;151138.17;1767463;80;22239;-59
2022/11/01 11:54:12;;;;;;;6.12;2.70;;;;;;;13.87;42.09;151139.44;1772444;80;21071;-59
2022/11/01 11:56:39;;;;;;;6.40;2.55;;;;;;;13.88;42.02;151142.05;1777738;80;21055;-59
2022/11/01 11:59:21;;;;;;;6.75;2.60;;;;;;;13.90;41.59;151147.25;1773076;80;22145;-59